Nearby METAR Reports

 

KAVP - Avoca/Wilkes B., Pennsylvania, USA
Distance from station: N 16mi, 25km
Updated: 09/23/2018 7:54am
Clear
Clear
 Wind from calm
Wind: Calm
Temperature: 52°F , 11°C
Dew Point: 48°F , 9°C
Humidity: 88%
Barometer: 30.25 inHg , 1024.4 hPa
Clouds: Clear
Visibility: 10 miles , 16 km
2018/09/23 11:54 KAVP 231154Z 00000KT 10SM CLR 11/09 A3025 RMK AO2 SLP243 T01060094 10111 20100 53004 $
KMPO - Mt. Pocono, Pennsylvania, USA
Distance from station: E 20mi, 33km
Updated: 09/23/2018 7:53am
Clear
Clear
 Wind from E
Wind: E 5 mph , 7 km/h
Temperature: 48°F , 9°C
Wind Chill: 46°F , 8°C
Dew Point: 45°F , 7°C
Humidity: 87%
Barometer: 30.24 inHg , 1024 hPa
Clouds: Clear
Visibility: 10 miles , 16 km
2018/09/23 11:53 KMPO 231153Z AUTO 08004KT 10SM CLR 09/07 A3024 RMK AO2 SLP246 T00940067 10100 20089 53002
 
KABE - Allentown, Pennsylvania, USA
Distance from station: SSE 36mi, 58km
Updated: 09/23/2018 7:51am
Clear
Clear
 Wind from NE
Wind: NE 3 mph , 6 km/h
Temperature: 57°F , 14°C
Dew Point: 52°F , 11°C
Humidity: 82%
Barometer: 30.24 inHg , 1024 hPa
Clouds: Clear
Visibility: 10 miles , 16 km
2018/09/23 11:51 KABE 231151Z 04003KT 10SM CLR 14/11 A3024 RMK AO2 SLP239 60002 70002 T01390106 10150 20139 53005
KXLL - Allentown Queen, Pennsylvania, USA
Distance from station: SSE 41mi, 65km
Updated: 09/23/2018 8:30am
Light rain, Partly cloudy
Light rain, Partly cloudy
 Wind from NNE
Wind: NNE 5 mph , 7 km/h
Barometer: 30.24 inHg , 1024 hPa
Summary: Light rain
Clouds: Partly cloudy
Visibility: 10 miles , 16 km
Cloud details: Partly cloudy 12000 ft
2018/09/23 12:30 KXLL 231230Z AUTO 03004KT 10SM -RA SCT120 A3024 RMK AO2